Time;durP1;ratioP1;P1;durP2;ratioP2;P2;SDS_P1;SDS_P2;PMS_P1;PMS_P2;Temp;Humidity;BMP_temperature;BMP_pressure;BME280_temperature;BME280_humidity;BME280_pressure;Samples;Min_cycle;Max_cycle;Signal;HPM_P1;HPM_P2
2023/05/03 00:02:13;;;;;;;8.57;1.20;;;8.60;69.60;;;;;;5053220;28;20029;-79
2023/05/03 00:04:40;;;;;;;2.57;0.73;;;8.60;69.70;;;;;;5052000;28;20362;-79
2023/05/03 00:07:05;;;;;;;3.33;0.60;;;8.60;69.40;;;;;;5053145;28;20032;-79
2023/05/03 00:09:33;;;;;;;3.63;0.90;;;8.50;69.30;;;;;;5068494;28;20025;-79
2023/05/03 00:12:00;;;;;;;3.07;0.70;;;8.50;69.80;;;;;;5053052;28;20037;-79
2023/05/03 00:14:26;;;;;;;3.93;0.80;;;8.50;69.60;;;;;;5051927;28;20040;-79
2023/05/03 00:16:52;;;;;;;6.23;0.77;;;8.60;69.40;;;;;;5053050;28;20023;-79
2023/05/03 00:19:18;;;;;;;2.87;1.00;;;8.50;69.50;;;;;;5068461;28;20108;-79
2023/05/03 00:21:45;;;;;;;2.43;0.80;;;8.40;69.70;;;;;;5068370;28;20533;-79
2023/05/03 00:24:10;;;;;;;3.90;0.90;;;8.40;69.80;;;;;;5051771;28;20095;-79
2023/05/03 00:26:36;;;;;;;3.67;1.00;;;8.40;70.00;;;;;;5052943;28;20358;-79
2023/05/03 00:29:02;;;;;;;1.80;0.50;;;8.40;69.80;;;;;;5068338;28;20025;-79
2023/05/03 00:31:27;;;;;;;2.33;0.50;;;8.40;69.90;;;;;;5053006;28;20405;-79
2023/05/03 00:33:53;;;;;;;3.80;1.10;;;8.40;69.80;;;;;;5051545;28;20025;-79
2023/05/03 00:36:19;;;;;;;3.00;0.67;;;8.30;69.80;;;;;;5051254;28;20067;-79
2023/05/03 00:38:44;;;;;;;4.40;0.90;;;8.30;69.40;;;;;;5068086;28;20040;-79
2023/05/03 00:41:11;;;;;;;5.10;0.80;;;8.20;69.20;;;;;;5052764;28;20033;-79
2023/05/03 00:43:38;;;;;;;4.00;0.70;;;8.30;69.40;;;;;;5052716;28;20017;-79
2023/05/03 00:46:06;;;;;;;4.03;0.60;;;8.10;69.50;;;;;;5068127;28;20025;-79
2023/05/03 00:48:33;;;;;;;3.03;0.77;;;8.20;69.60;;;;;;5052751;28;20100;-79
2023/05/03 00:51:01;;;;;;;6.23;0.70;;;8.10;69.60;;;;;;5069071;28;20039;-79
2023/05/03 00:53:26;;;;;;;6.90;0.97;;;8.10;69.90;;;;;;5055502;28;20025;-79
2023/05/03 00:55:54;;;;;;;2.47;0.60;;;8.10;69.70;;;;;;5055309;28;20473;-79
2023/05/03 00:58:20;;;;;;;6.00;0.90;;;8.10;69.70;;;;;;5056480;28;20123;-79
2023/05/03 01:00:47;;;;;;;2.30;0.90;;;8.00;69.70;;;;;;5055201;28;20120;-79
2023/05/03 01:03:13;;;;;;;3.67;0.83;;;7.90;69.60;;;;;;5056639;28;20027;-79
2023/05/03 01:06:05;;;;;;;3.47;0.63;;;8.00;70.70;;;;;;5056525;28;20083;-79
2023/05/03 01:08:45;;;;;;;1.67;0.70;;;7.90;70.30;;;;;;5056510;28;20025;-79
2023/05/03 01:11:13;;;;;;;4.53;0.90;;;7.90;70.30;;;;;;5056522;28;20029;-79
2023/05/03 01:13:55;;;;;;;6.03;1.00;;;7.90;70.70;;;;;;5055256;28;20036;-79
2023/05/03 01:16:53;;;;;;;3.43;0.80;;;7.90;70.80;;;;;;5056338;28;20017;-79
2023/05/03 01:19:25;;;;;;;7.23;1.13;;;7.90;71.20;;;;;;5054987;28;20110;-79
2023/05/03 01:22:01;;;;;;;5.20;1.37;;;7.90;71.30;;;;;;5056235;28;20025;-79
2023/05/03 01:24:30;;;;;;;4.90;1.27;;;7.90;71.20;;;;;;5056217;28;20013;-79
2023/05/03 01:26:58;;;;;;;3.93;1.00;;;7.80;71.00;;;;;;5056140;28;20071;-79
2023/05/03 01:29:23;;;;;;;7.37;1.20;;;7.70;71.40;;;;;;5054753;28;20029;-79
2023/05/03 01:31:56;;;;;;;3.73;0.90;;;7.70;71.70;;;;;;5054794;28;20552;-79
2023/05/03 01:34:32;;;;;;;6.33;0.90;;;7.70;71.60;;;;;;5054760;28;20032;-79
2023/05/03 01:36:58;;;;;;;5.27;1.20;;;7.70;71.80;;;;;;5055740;28;20397;-79
2023/05/03 01:39:37;;;;;;;5.07;1.20;;;7.70;71.70;;;;;;5054580;28;20029;-79
2023/05/03 01:42:04;;;;;;;4.03;0.80;;;7.60;71.70;;;;;;5054674;28;20111;-79
2023/05/03 01:44:31;;;;;;;3.33;1.23;;;7.60;72.20;;;;;;5055750;28;20029;-79
2023/05/03 01:46:57;;;;;;;4.53;0.93;;;7.60;72.10;;;;;;5056056;28;20140;-79
2023/05/03 01:49:23;;;;;;;5.73;1.30;;;7.60;72.20;;;;;;5070279;28;20033;-79
2023/05/03 01:51:48;;;;;;;4.90;1.27;;;7.70;72.80;;;;;;5054512;28;20056;-79
2023/05/03 01:54:15;;;;;;;5.40;1.40;;;7.50;72.40;;;;;;5071197;28;20108;-79
2023/05/03 01:56:40;;;;;;;5.53;1.03;;;7.50;72.50;;;;;;5071153;28;20044;-79
2023/05/03 01:59:06;;;;;;;6.90;0.93;;;7.50;72.90;;;;;;5071116;28;20037;-79
2023/05/03 02:01:31;;;;;;;6.97;1.23;;;7.50;72.90;;;;;;5071036;28;20501;-79
2023/05/03 02:03:57;;;;;;;6.90;1.47;;;7.50;73.10;;;;;;5070316;28;20033;-79
2023/05/03 02:06:26;;;;;;;7.40;1.13;;;7.40;72.90;;;;;;5055471;28;20100;-79
2023/05/03 02:08:53;;;;;;;2.93;0.90;;;7.30;73.20;;;;;;5054224;28;20021;-78
2023/05/03 02:11:18;;;;;;;8.40;1.17;;;7.40;73.30;;;;;;5055451;28;20035;-79
2023/05/03 02:13:47;;;;;;;3.87;1.23;;;7.40;73.20;;;;;;5055534;28;20029;-79
2023/05/03 02:16:12;;;;;;;4.43;1.10;;;7.40;73.20;;;;;;5053956;28;20021;-79
2023/05/03 02:18:38;;;;;;;4.20;1.00;;;7.30;73.70;;;;;;5055379;28;20482;-79
2023/05/03 02:21:04;;;;;;;5.47;1.60;;;7.30;73.40;;;;;;5055228;28;20029;-79
2023/05/03 02:23:30;;;;;;;4.60;1.10;;;7.30;73.90;;;;;;5070679;28;20449;-79
2023/05/03 02:25:56;;;;;;;3.47;0.90;;;7.30;73.70;;;;;;5070752;28;20032;-78
2023/05/03 02:28:22;;;;;;;4.37;1.00;;;7.40;73.90;;;;;;5055113;28;20044;-79
2023/05/03 02:30:48;;;;;;;5.53;1.70;;;7.30;74.30;;;;;;5053916;28;20485;-79
2023/05/03 02:33:14;;;;;;;4.97;1.20;;;7.10;73.90;;;;;;5070619;28;20519;-79
2023/05/03 02:35:39;;;;;;;6.13;1.40;;;7.20;74.50;;;;;;5053715;28;20029;-78
2023/05/03 02:38:05;;;;;;;2.73;0.90;;;7.20;74.50;;;;;;5054899;28;20060;-78
2023/05/03 02:40:31;;;;;;;3.33;1.10;;;7.10;74.30;;;;;;5070350;28;20056;-79
2023/05/03 02:42:57;;;;;;;4.40;1.47;;;7.20;74.50;;;;;;5070187;28;20025;-79
2023/05/03 02:45:23;;;;;;;4.93;1.30;;;7.20;74.60;;;;;;5070498;28;20032;-79
2023/05/03 02:47:48;;;;;;;4.47;1.00;;;7.20;74.80;;;;;;5070169;28;20059;-79
2023/05/03 02:50:14;;;;;;;8.77;1.10;;;7.10;74.70;;;;;;5054755;28;20028;-79
2023/05/03 02:52:39;;;;;;;4.20;0.90;;;7.10;74.80;;;;;;5070272;28;20033;-79
2023/05/03 02:55:05;;;;;;;6.10;1.40;;;7.10;75.00;;;;;;5068370;28;20389;-79
2023/05/03 02:57:31;;;;;;;3.23;1.10;;;7.10;75.10;;;;;;5070109;28;20081;-79
2023/05/03 02:59:57;;;;;;;3.73;0.90;;;7.00;75.10;;;;;;5056226;28;20032;-79
2023/05/03 03:02:23;;;;;;;2.80;0.80;;;7.00;75.10;;;;;;5071467;28;20060;-79
2023/05/03 03:04:48;;;;;;;4.73;1.10;;;7.00;75.10;;;;;;5069679;28;20460;-79
2023/05/03 03:07:14;;;;;;;2.20;1.00;;;7.00;75.20;;;;;;5053317;28;20045;-79
2023/05/03 03:09:40;;;;;;;6.43;1.03;;;7.00;75.40;;;;;;5054103;28;20036;-79
2023/05/03 03:12:05;;;;;;;3.47;0.90;;;6.90;75.40;;;;;;5052669;28;20030;-79
2023/05/03 03:14:31;;;;;;;4.27;1.00;;;6.90;75.40;;;;;;5068319;28;20093;-79
2023/05/03 03:16:57;;;;;;;5.87;0.90;;;6.90;75.40;;;;;;5073815;28;20552;-78
2023/05/03 03:19:22;;;;;;;4.23;0.90;;;6.90;75.60;;;;;;5073647;28;20035;-79
2023/05/03 03:21:48;;;;;;;3.33;1.13;;;6.90;75.40;;;;;;5072693;28;20366;-79
2023/05/03 03:24:14;;;;;;;8.53;1.30;;;6.90;75.90;;;;;;5073815;28;20481;-79
2023/05/03 03:26:40;;;;;;;3.87;0.90;;;6.90;75.40;;;;;;5073907;28;20361;-79
2023/05/03 03:29:05;;;;;;;3.10;0.93;;;6.80;75.40;;;;;;5073839;28;20035;-79
2023/05/03 03:31:31;;;;;;;3.50;0.80;;;6.80;75.30;;;;;;5072597;28;20024;-78
2023/05/03 03:33:57;;;;;;;3.47;0.80;;;6.80;75.20;;;;;;5073834;28;20056;-79
2023/05/03 03:36:23;;;;;;;3.87;0.83;;;6.90;75.40;;;;;;5072502;28;20045;-78
2023/05/03 03:38:48;;;;;;;4.00;1.17;;;6.80;75.40;;;;;;5055605;28;20053;-79
2023/05/03 03:41:14;;;;;;;3.33;1.00;;;6.70;75.40;;;;;;5072305;28;20028;-79
2023/05/03 03:43:40;;;;;;;4.07;1.07;;;6.70;75.40;;;;;;5073538;28;20082;-79
2023/05/03 03:46:05;;;;;;;4.53;1.20;;;6.70;75.60;;;;;;5073432;28;20024;-78
2023/05/03 03:48:31;;;;;;;4.43;1.20;;;6.80;75.80;;;;;;5073500;28;20358;-79
2023/05/03 03:50:56;;;;;;;4.03;1.07;;;6.60;75.80;;;;;;5055761;28;20079;-79
2023/05/03 03:53:22;;;;;;;3.73;1.10;;;6.70;75.70;;;;;;5072401;28;20024;-79
2023/05/03 03:55:48;;;;;;;5.37;0.93;;;6.60;75.70;;;;;;5073608;28;20381;-79
2023/05/03 03:58:13;;;;;;;3.47;1.07;;;6.60;75.70;;;;;;5073451;28;20032;-79
2023/05/03 04:00:39;;;;;;;4.17;1.13;;;6.60;76.00;;;;;;5072000;28;20040;-79
2023/05/03 04:03:05;;;;;;;3.70;1.30;;;6.60;75.90;;;;;;5072073;28;20031;-79
2023/05/03 04:05:31;;;;;;;4.73;1.90;;;6.60;75.90;;;;;;5073402;28;20017;-79
2023/05/03 04:07:57;;;;;;;5.07;1.60;;;6.60;76.30;;;;;;5073222;28;20035;-78
2023/05/03 04:10:23;;;;;;;3.47;1.50;;;6.60;77.00;;;;;;5071798;28;20028;-78
2023/05/03 04:12:49;;;;;;;4.67;1.90;;;6.60;76.40;;;;;;5073089;28;20191;-79
2023/05/03 04:15:14;;;;;;;5.27;1.73;;;6.60;76.40;;;;;;5066743;28;20048;-78
2023/05/03 04:17:40;;;;;;;3.70;1.40;;;6.60;76.50;;;;;;5071440;28;20419;-79
2023/05/03 04:20:06;;;;;;;4.03;1.60;;;6.60;76.80;;;;;;5070311;28;20504;-78
2023/05/03 04:22:32;;;;;;;7.37;1.57;;;6.50;76.60;;;;;;5071732;28;20357;-79
2023/05/03 04:25:00;;;;;;;7.50;1.37;;;6.40;76.80;;;;;;5072752;28;20027;-79
2023/05/03 04:27:25;;;;;;;5.70;1.77;;;6.60;77.10;;;;;;5077935;28;20020;-79
2023/05/03 04:29:51;;;;;;;7.07;1.60;;;6.60;76.80;;;;;;5077823;28;20031;-79
2023/05/03 04:32:22;;;;;;;3.00;0.90;;;6.50;76.60;;;;;;5079450;28;20111;-78
2023/05/03 04:34:53;;;;;;;6.13;1.70;;;6.60;76.80;;;;;;5078582;28;20095;-78
2023/05/03 04:37:19;;;;;;;6.93;1.50;;;6.50;76.80;;;;;;5062697;28;20470;-78
2023/05/03 04:39:45;;;;;;;5.07;1.60;;;6.60;77.10;;;;;;5076924;28;20111;-78
2023/05/03 04:42:14;;;;;;;6.27;1.50;;;6.60;77.10;;;;;;5076781;28;20029;-78
2023/05/03 04:44:43;;;;;;;4.80;1.70;;;6.60;77.20;;;;;;5071537;28;20023;-78
2023/05/03 04:47:09;;;;;;;4.07;1.20;;;6.60;77.20;;;;;;5068391;28;20033;-78
2023/05/03 04:49:35;;;;;;;6.40;1.40;;;6.60;77.10;;;;;;5078460;28;20158;-78
2023/05/03 04:52:01;;;;;;;5.00;1.30;;;6.60;77.20;;;;;;5066217;28;20035;-78
2023/05/03 04:54:26;;;;;;;3.23;1.03;;;6.60;77.20;;;;;;5078716;28;20123;-78
2023/05/03 04:56:53;;;;;;;6.97;1.80;;;6.60;77.30;;;;;;5079574;28;20048;-78
2023/05/03 04:59:19;;;;;;;7.83;1.80;;;6.70;77.60;;;;;;5078518;28;20035;-78
2023/05/03 05:01:46;;;;;;;4.87;1.20;;;6.70;77.80;;;;;;5078660;28;20021;-78
2023/05/03 05:04:11;;;;;;;4.93;1.10;;;6.70;77.50;;;;;;5079472;28;20052;-78
2023/05/03 05:06:37;;;;;;;4.17;1.23;;;6.70;77.70;;;;;;5079636;28;20110;-78
2023/05/03 05:09:06;;;;;;;4.80;1.10;;;6.70;77.60;;;;;;5079560;28;20071;-78
2023/05/03 05:11:32;;;;;;;5.23;1.10;;;6.80;77.70;;;;;;5079723;28;20024;-78
2023/05/03 05:13:57;;;;;;;7.73;1.23;;;6.80;77.90;;;;;;5078414;28;20033;-78
2023/05/03 05:16:23;;;;;;;8.37;1.37;;;6.80;77.80;;;;;;5079715;28;20032;-78
2023/05/03 05:18:48;;;;;;;9.53;1.57;;;6.80;78.20;;;;;;5078415;28;20067;-78
2023/05/03 05:21:14;;;;;;;5.43;1.07;;;6.90;78.60;;;;;;5079420;28;20025;-78
2023/05/03 05:23:40;;;;;;;3.80;1.30;;;7.00;78.60;;;;;;5078477;28;20021;-78
2023/05/03 05:26:05;;;;;;;3.13;1.07;;;7.00;78.90;;;;;;5061197;28;20028;-78
2023/05/03 05:28:31;;;;;;;6.40;1.43;;;7.00;78.50;;;;;;5075686;28;20029;-78
2023/05/03 05:30:58;;;;;;;7.33;1.70;;;7.10;78.60;;;;;;5077315;28;20485;-78
2023/05/03 05:33:24;;;;;;;3.23;1.23;;;7.10;78.70;;;;;;5075418;28;20093;-79
2023/05/03 05:35:49;;;;;;;7.47;1.73;;;7.10;78.50;;;;;;5077209;28;20105;-78
2023/05/03 05:38:18;;;;;;;6.80;1.30;;;7.10;78.70;;;;;;5072279;28;20052;-78
2023/05/03 05:40:44;;;;;;;5.63;1.57;;;7.10;78.90;;;;;;5074273;28;20082;-78
2023/05/03 05:43:10;;;;;;;3.77;1.13;;;7.20;78.90;;;;;;5075605;28;20025;-78
2023/05/03 05:45:35;;;;;;;7.23;1.43;;;7.30;78.80;;;;;;5072281;28;20070;-78
2023/05/03 05:48:01;;;;;;;2.80;1.27;;;7.30;78.90;;;;;;5059854;28;20537;-78
2023/05/03 05:50:27;;;;;;;3.57;1.20;;;7.30;79.60;;;;;;5074960;28;20032;-78
2023/05/03 05:52:53;;;;;;;2.50;0.90;;;7.40;78.90;;;;;;5071873;28;20396;-78
2023/05/03 05:55:19;;;;;;;4.57;1.20;;;7.50;79.00;;;;;;5075103;28;20028;-79
2023/05/03 05:57:45;;;;;;;5.17;1.20;;;7.50;79.10;;;;;;5074133;28;20029;-78
2023/05/03 06:00:16;;;;;;;6.90;1.00;;;7.50;79.00;;;;;;5075355;28;20039;-78
2023/05/03 06:02:41;;;;;;;4.20;0.93;;;7.50;78.90;;;;;;5069934;28;20465;-78
2023/05/03 06:05:08;;;;;;;3.13;1.10;;;7.60;78.90;;;;;;5056635;28;20020;-78
2023/05/03 06:07:33;;;;;;;4.43;1.47;;;7.60;78.90;;;;;;5073215;28;20026;-78
2023/05/03 06:09:59;;;;;;;4.30;1.17;;;7.60;78.90;;;;;;5056582;28;20031;-78
2023/05/03 06:12:26;;;;;;;5.93;1.67;;;7.70;78.90;;;;;;5073946;28;20055;-78
2023/05/03 06:14:51;;;;;;;6.60;1.00;;;7.80;78.80;;;;;;5075109;28;20052;-78
2023/05/03 06:17:17;;;;;;;3.70;1.17;;;7.80;78.70;;;;;;5073883;28;20052;-78
2023/05/03 06:19:43;;;;;;;6.00;1.37;;;7.80;78.60;;;;;;5057060;28;20119;-78
2023/05/03 06:22:08;;;;;;;5.43;1.60;;;7.80;78.60;;;;;;5055280;28;20031;-78
2023/05/03 06:24:34;;;;;;;3.97;1.20;;;7.90;78.50;;;;;;5073325;28;20029;-78
2023/05/03 06:26:59;;;;;;;4.63;1.40;;;7.90;78.30;;;;;;5074987;28;20210;-78
2023/05/03 06:29:26;;;;;;;5.27;1.30;;;8.00;78.20;;;;;;5073469;28;20032;-79
2023/05/03 06:31:51;;;;;;;4.03;1.17;;;8.10;78.10;;;;;;5075337;28;20369;-78
2023/05/03 06:34:20;;;;;;;4.90;1.10;;;8.10;77.90;;;;;;5075667;28;20028;-78
2023/05/03 06:36:46;;;;;;;4.00;1.20;;;8.10;77.60;;;;;;5057006;28;20066;-78
2023/05/03 06:39:12;;;;;;;3.17;0.97;;;8.20;77.40;;;;;;5074348;28;20036;-80
2023/05/03 06:41:38;;;;;;;4.43;1.20;;;8.20;77.30;;;;;;5073676;28;20497;-78
2023/05/03 06:44:03;;;;;;;4.17;1.17;;;8.30;77.10;;;;;;5073375;28;20036;-79
2023/05/03 06:46:29;;;;;;;6.87;1.33;;;8.30;76.70;;;;;;5054743;28;20040;-78
2023/05/03 06:48:56;;;;;;;7.83;1.57;;;8.40;76.50;;;;;;5054242;28;20036;-78
2023/05/03 06:51:29;;;;;;;3.40;1.00;;;8.50;76.30;;;;;;5072358;28;20459;-79
2023/05/03 06:53:56;;;;;;;2.25;0.77;;;8.50;76.20;;;;;;5070098;28;20044;-79
2023/05/03 06:56:22;;;;;;;3.90;0.80;;;8.50;75.90;;;;;;5072630;28;20056;-78
2023/05/03 06:58:48;;;;;;;4.37;0.80;;;8.50;75.70;;;;;;5073207;28;20036;-78
2023/05/03 07:01:14;;;;;;;4.60;1.13;;;8.60;75.60;;;;;;5072971;28;20098;-83
2023/05/03 07:03:40;;;;;;;3.27;0.90;;;8.60;74.80;;;;;;5070238;28;20519;-79
2023/05/03 07:06:06;;;;;;;7.33;0.83;;;8.70;74.80;;;;;;5052583;28;20033;-81
2023/05/03 07:08:31;;;;;;;7.37;1.33;;;8.70;74.60;;;;;;5054163;28;20029;-79
2023/05/03 07:10:57;;;;;;;6.70;1.00;;;8.70;74.60;;;;;;5053870;28;20033;-81
2023/05/03 07:13:23;;;;;;;3.47;1.10;;;8.80;74.50;;;;;;5053877;28;20536;-81
2023/05/03 07:15:49;;;;;;;5.20;1.10;;;8.80;74.40;;;;;;5053896;28;20036;-81
2023/05/03 07:18:15;;;;;;;9.37;1.57;;;8.80;74.50;;;;;;5053795;28;20127;-82
2023/05/03 07:20:40;;;;;;;4.30;1.10;;;8.90;74.40;;;;;;5053873;28;20044;-84
2023/05/03 07:23:06;;;;;;;8.70;1.57;;;9.00;74.30;;;;;;5053961;28;20037;-83
2023/05/03 07:25:32;;;;;;;3.47;1.30;;;9.00;74.20;;;;;;5053803;28;20488;-84
2023/05/03 07:27:58;;;;;;;6.23;1.20;;;9.10;74.10;;;;;;5035970;28;20025;-84
2023/05/03 07:30:24;;;;;;;6.73;1.10;;;9.10;74.00;;;;;;5053877;28;20036;-81
2023/05/03 07:32:49;;;;;;;8.03;1.30;;;9.10;73.50;;;;;;5052505;28;20530;-82
2023/05/03 07:35:15;;;;;;;7.90;1.10;;;9.20;73.30;;;;;;5053701;28;20037;-83
2023/05/03 07:37:42;;;;;;;5.33;1.10;;;9.20;73.20;;;;;;5053630;28;20118;-84
2023/05/03 07:40:08;;;;;;;5.53;1.03;;;9.30;73.30;;;;;;5052228;28;20404;-82
2023/05/03 07:42:34;;;;;;;5.80;1.60;;;9.30;73.40;;;;;;5053650;28;20040;-84
2023/05/03 07:45:00;;;;;;;6.73;1.17;;;9.30;73.40;;;;;;5035768;28;20033;-82
2023/05/03 07:47:30;;;;;;;7.47;1.20;;;9.40;73.10;;;;;;5053435;28;20053;-81
2023/05/03 07:49:55;;;;;;;5.13;1.20;;;9.40;72.50;;;;;;5053458;28;20037;-79
2023/05/03 07:52:21;;;;;;;4.93;1.77;;;9.50;72.30;;;;;;5053373;28;20087;-83
2023/05/03 07:54:47;;;;;;;4.03;1.47;;;9.50;71.90;;;;;;5056041;28;20071;-85
2023/05/03 07:57:15;;;;;;;4.90;1.23;;;9.60;72.00;;;;;;5071646;28;20033;-81
2023/05/03 07:59:43;;;;;;;4.10;1.30;;;9.60;72.20;;;;;;5069139;28;20036;-81
2023/05/03 08:02:09;;;;;;;3.63;1.17;;;9.60;72.20;;;;;;5069954;28;20404;-85
2023/05/03 08:04:35;;;;;;;3.37;1.20;;;9.70;71.90;;;;;;5070936;28;20112;-83
2023/05/03 08:07:03;;;;;;;6.63;1.30;;;9.80;72.00;;;;;;5069098;28;20035;-82
2023/05/03 08:09:29;;;;;;;5.23;1.23;;;9.80;71.60;;;;;;5054015;28;20284;-81
2023/05/03 08:11:56;;;;;;;5.23;1.63;;;9.90;71.20;;;;;;5070975;28;20111;-79
2023/05/03 08:14:24;;;;;;;6.23;1.13;;;10.00;71.20;;;;;;5070351;28;20036;-79
2023/05/03 08:16:50;;;;;;;3.00;0.90;;;10.00;71.20;;;;;;5069293;28;20033;-80
2023/05/03 08:19:16;;;;;;;4.00;1.30;;;10.10;71.40;;;;;;5072417;28;20025;-78
2023/05/03 08:21:42;;;;;;;5.70;0.83;;;10.20;71.00;;;;;;5071612;28;20384;-79
2023/05/03 08:24:08;;;;;;;5.07;0.90;;;10.20;70.70;;;;;;5055186;28;20025;-82
2023/05/03 08:26:34;;;;;;;4.07;0.93;;;10.20;70.70;;;;;;5071748;28;20032;-78
2023/05/03 08:29:02;;;;;;;7.13;1.10;;;10.30;70.50;;;;;;5070377;28;20028;-78
2023/05/03 08:31:30;;;;;;;4.80;0.90;;;10.40;70.50;;;;;;5070914;28;20514;-78
2023/05/03 08:33:55;;;;;;;3.43;0.80;;;10.50;70.00;;;;;;5073040;28;20037;-80
2023/05/03 08:36:21;;;;;;;7.00;0.87;;;10.50;70.10;;;;;;5072860;28;20498;-80
2023/05/03 08:38:49;;;;;;;7.13;1.67;;;10.60;70.00;;;;;;5071727;28;20044;-80
2023/05/03 08:41:26;;;;;;;2.80;0.70;;;10.60;69.70;;;;;;5070621;28;20489;-78
2023/05/03 08:43:53;;;;;;;2.70;0.87;;;10.70;69.70;;;;;;5070239;28;20369;-81
2023/05/03 08:46:19;;;;;;;4.43;0.90;;;10.80;69.00;;;;;;5070783;28;20087;-80
2023/05/03 08:48:48;;;;;;;5.43;0.90;;;10.80;68.60;;;;;;5071695;28;20025;-81
2023/05/03 08:51:15;;;;;;;4.30;1.23;;;10.90;68.20;;;;;;5071422;28;20074;-74
2023/05/03 08:53:41;;;;;;;6.83;1.07;;;11.00;67.40;;;;;;5071369;28;20463;-77
2023/05/03 08:56:08;;;;;;;4.17;1.20;;;11.00;67.70;;;;;;5071503;28;20068;-78
2023/05/03 08:58:37;;;;;;;6.93;1.20;;;11.00;67.40;;;;;;5072653;28;20039;-79
2023/05/03 09:01:08;;;;;;;8.37;1.20;;;11.10;67.20;;;;;;5072646;28;20044;-79
2023/05/03 09:03:35;;;;;;;7.70;0.90;;;11.20;66.90;;;;;;5072791;28;20480;-83
2023/05/03 09:06:02;;;;;;;5.57;1.53;;;11.30;67.10;;;;;;5072187;28;20107;-82
2023/05/03 09:08:28;;;;;;;4.05;0.65;;;11.30;66.90;;;;;;5068883;28;20481;-78
2023/05/03 09:10:54;;;;;;;3.75;1.10;;;11.40;66.90;;;;;;5071040;28;20034;-80
2023/05/03 09:13:20;;;;;;;5.18;1.00;;;11.50;66.90;;;;;;5070124;28;20065;-83
2023/05/03 09:15:53;;;;;;;2.70;0.90;;;11.60;66.90;;;;;;5072962;28;20426;-83
2023/05/03 09:18:20;;;;;;;4.78;1.00;;;11.70;66.70;;;;;;5061993;28;20028;-82
2023/05/03 09:20:50;;;;;;;7.95;1.25;;;11.70;66.60;;;;;;5074491;28;20528;-83
2023/05/03 09:23:29;;;;;;;3.38;1.00;;;11.80;66.20;;;;;;5057244;28;20056;-84
2023/05/03 09:25:56;;;;;;;6.05;0.85;;;11.90;66.00;;;;;;5056294;28;20108;-86
2023/05/03 09:28:22;;;;;;;5.13;0.93;;;12.00;65.80;;;;;;5071621;28;20545;-88
2023/05/03 09:30:49;;;;;;;5.78;0.73;;;12.00;65.80;;;;;;5064566;28;20174;-86
2023/05/03 09:33:20;;;;;;;4.20;1.42;;;12.10;65.90;;;;;;5074661;28;20103;-82
2023/05/03 09:36:02;;;;;;;7.30;1.13;;;12.20;65.00;;;;;;5076244;28;20028;-86
2023/05/03 09:38:29;;;;;;;4.22;0.85;;;12.20;64.10;;;;;;5075920;28;20141;-86
2023/05/03 09:40:55;;;;;;;5.57;1.20;;;12.20;64.50;;;;;;5076894;28;20035;-88
2023/05/03 09:43:21;;;;;;;6.00;0.88;;;12.30;64.80;;;;;;5058046;28;20032;-86
2023/05/03 09:45:47;;;;;;;4.90;0.90;;;12.40;64.70;;;;;;5075370;28;20029;-86
2023/05/03 09:48:13;;;;;;;7.82;1.10;;;12.40;64.60;;;;;;5090856;28;20031;-86
2023/05/03 09:50:40;;;;;;;4.05;1.13;;;12.50;64.50;;;;;;5072666;28;20044;-86
2023/05/03 09:53:07;;;;;;;3.95;1.02;;;12.60;64.30;;;;;;5071441;28;20385;-88
2023/05/03 09:55:36;;;;;;;5.35;0.80;;;12.70;64.20;;;;;;5075751;28;20040;-86
2023/05/03 09:58:06;;;;;;;6.03;1.10;;;12.80;64.10;;;;;;5057979;28;20036;-89
2023/05/03 10:00:36;;;;;;;6.10;1.30;;;12.90;63.50;;;;;;5054546;28;20053;-90
2023/05/03 10:03:10;;;;;;;3.38;0.80;;;12.90;63.40;;;;;;5054649;28;20044;-87
2023/05/03 10:05:57;;;;;;;4.93;1.00;;;13.00;63.50;;;;;;5073953;28;20480;-86
2023/05/03 10:08:34;;;;;;;3.63;0.70;;;13.10;63.30;;;;;;5074387;28;20087;-89
2023/05/03 10:11:06;;;;;;;4.70;0.90;;;13.20;62.90;;;;;;5057567;28;20032;-91
2023/05/03 10:13:32;;;;;;;5.63;1.23;;;13.30;62.70;;;;;;5074603;28;20028;-90
2023/05/03 10:16:12;;;;;;;3.20;1.00;;;13.40;62.00;;;;;;5074282;28;20021;-88
2023/05/03 10:18:50;;;;;;;3.72;1.05;;;13.70;62.50;;;;;;5074956;28;20473;-88
2023/05/03 10:21:24;;;;;;;2.72;0.90;;;13.90;61.90;;;;;;5074336;28;20059;-89
2023/05/03 10:24:16;;;;;;;4.45;0.90;;;14.00;61.50;;;;;;5073333;28;20023;-86
2023/05/03 10:26:46;;;;;;;4.57;0.70;;;14.30;60.80;;;;;;5069221;28;20048;-88
2023/05/03 10:29:33;;;;;;;5.30;0.90;;;14.40;60.90;;;;;;5057119;28;20052;-88
2023/05/03 10:32:02;;;;;;;5.28;1.00;;;14.60;60.80;;;;;;5073933;28;20016;-85
2023/05/03 10:34:38;;;;;;;3.45;0.70;;;14.70;60.90;;;;;;5057257;28;20020;-85
2023/05/03 10:37:09;;;;;;;3.60;0.73;;;14.80;60.70;;;;;;5057932;28;20024;-87
2023/05/03 10:39:35;;;;;;;3.45;0.93;;;15.00;60.40;;;;;;5074505;28;20055;-85
2023/05/03 10:42:07;;;;;;;2.72;0.80;;;15.20;60.30;;;;;;5073613;28;20024;-87
2023/05/03 10:44:53;;;;;;;2.15;0.77;;;15.30;60.20;;;;;;5073658;28;20027;-84
2023/05/03 10:47:23;;;;;;;3.20;0.75;;;15.50;59.70;;;;;;5074584;28;20027;-87
2023/05/03 10:50:14;;;;;;;3.85;0.90;;;15.70;59.70;;;;;;5073496;28;20465;-86
2023/05/03 10:52:42;;;;;;;2.47;0.60;;;15.90;59.10;;;;;;5074534;28;20080;-86
2023/05/03 10:55:17;;;;;;;4.70;1.00;;;16.10;59.10;;;;;;5073184;28;20025;-85
2023/05/03 10:57:47;;;;;;;2.50;0.60;;;16.30;58.60;;;;;;5074361;28;20039;-85
2023/05/03 11:00:22;;;;;;;2.92;0.70;;;16.50;58.40;;;;;;5074247;28;20113;-86
2023/05/03 11:03:27;;;;;;;2.70;0.70;;;16.70;57.90;;;;;;5072388;28;20025;-87
2023/05/03 11:05:53;;;;;;;3.67;0.70;;;16.90;57.10;;;;;;5073071;28;20021;-89
2023/05/03 11:08:20;;;;;;;2.33;0.60;;;17.20;57.20;;;;;;5074197;28;20522;-83
2023/05/03 11:10:48;;;;;;;3.03;0.60;;;17.40;56.60;;;;;;5072827;28;20041;-87
2023/05/03 11:13:14;;;;;;;3.13;0.60;;;17.50;55.80;;;;;;5072942;28;20029;-87
2023/05/03 11:15:40;;;;;;;3.72;0.70;;;17.70;55.50;;;;;;5074059;28;20032;-84
2023/05/03 11:18:08;;;;;;;1.92;0.50;;;17.90;55.20;;;;;;5073876;28;20495;-86
2023/05/03 11:20:39;;;;;;;3.20;0.68;;;18.10;54.70;;;;;;5072662;28;20020;-83
2023/05/03 11:23:08;;;;;;;2.63;0.70;;;18.20;54.20;;;;;;5056224;28;20032;-84
2023/05/03 11:25:34;;;;;;;2.30;0.43;;;18.30;53.90;;;;;;5062247;28;20040;-87
2023/05/03 11:28:01;;;;;;;2.72;0.60;;;18.50;53.50;;;;;;5069448;28;20056;-83
2023/05/03 11:30:28;;;;;;;2.05;0.57;;;18.70;53.10;;;;;;5053681;28;20477;-84
2023/05/03 11:32:54;;;;;;;4.15;0.80;;;18.80;52.50;;;;;;5052545;28;20055;-87
2023/05/03 11:35:22;;;;;;;3.17;0.75;;;19.00;52.20;;;;;;5051723;28;20025;-86
2023/05/03 11:37:49;;;;;;;2.22;0.57;;;19.20;52.00;;;;;;5068733;28;20151;-85
2023/05/03 11:40:15;;;;;;;4.47;0.77;;;19.40;51.60;;;;;;5069204;28;20033;-88
2023/05/03 11:43:00;;;;;;;3.45;0.50;;;19.60;51.10;;;;;;5052268;28;20021;-82
2023/05/03 11:45:31;;;;;;;3.38;0.75;;;19.80;50.30;;;;;;5069182;28;20021;-85
2023/05/03 11:47:58;;;;;;;3.45;0.77;;;20.00;50.20;;;;;;5053532;28;20017;-82
2023/05/03 11:50:42;;;;;;;2.30;0.60;;;20.20;49.70;;;;;;5052241;28;20123;-85
2023/05/03 11:53:08;;;;;;;3.08;0.52;;;20.20;48.90;;;;;;5052489;28;20025;-87
2023/05/03 11:55:38;;;;;;;2.17;0.60;;;20.40;49.30;;;;;;5052254;28;20036;-85
2023/05/03 11:58:03;;;;;;;2.88;0.55;;;20.60;48.90;;;;;;5056460;28;20025;-84
2023/05/03 12:00:29;;;;;;;3.40;0.70;;;20.80;48.70;;;;;;5055514;28;20082;-86
2023/05/03 12:02:58;;;;;;;1.50;0.40;;;21.00;48.30;;;;;;5072078;28;20016;-89
2023/05/03 12:05:23;;;;;;;3.13;0.65;;;21.20;47.70;;;;;;5073302;28;20024;-82
2023/05/03 12:07:50;;;;;;;2.95;0.60;;;21.40;47.30;;;;;;5072113;28;20040;-83
2023/05/03 12:10:19;;;;;;;2.50;0.80;;;21.50;46.80;;;;;;5072117;28;20024;-89
2023/05/03 12:12:56;;;;;;;1.58;0.50;;;21.60;46.50;;;;;;5067457;28;20036;-80
2023/05/03 12:15:32;;;;;;;2.92;0.57;;;21.80;46.10;;;;;;5062225;28;20389;-87
2023/05/03 12:18:00;;;;;;;3.78;1.02;;;22.00;45.80;;;;;;5071245;28;20017;-83
2023/05/03 12:20:29;;;;;;;2.13;0.60;;;22.10;45.60;;;;;;5068174;28;20079;-82
2023/05/03 12:22:56;;;;;;;3.63;0.50;;;22.20;45.30;;;;;;5083172;28;20033;-88
2023/05/03 12:25:23;;;;;;;1.98;0.50;;;22.40;45.10;;;;;;5080971;28;20442;-84
2023/05/03 12:27:48;;;;;;;2.28;0.50;;;22.50;44.80;;;;;;5063872;28;20478;-83
2023/05/03 12:30:14;;;;;;;2.00;0.45;;;22.70;44.60;;;;;;5052788;28;20036;-87
2023/05/03 12:32:40;;;;;;;3.50;0.73;;;23.00;44.40;;;;;;5081979;28;20044;-82
2023/05/03 12:35:09;;;;;;;3.20;0.60;;;23.20;43.90;;;;;;5070676;28;20035;-85
2023/05/03 12:37:35;;;;;;;2.42;0.57;;;23.40;43.60;;;;;;5067724;28;20430;-84
2023/05/03 12:40:02;;;;;;;2.60;0.68;;;23.60;43.30;;;;;;5058834;28;20143;-86
2023/05/03 12:42:28;;;;;;;2.10;0.60;;;23.80;43.00;;;;;;5038411;28;20025;-85
2023/05/03 12:45:00;;;;;;;3.13;0.60;;;24.00;42.70;;;;;;5081492;28;20435;-84
2023/05/03 12:47:26;;;;;;;1.83;0.60;;;24.20;42.30;;;;;;5069302;28;20037;-86
2023/05/03 12:49:52;;;;;;;4.93;0.60;;;24.40;42.20;;;;;;5062500;28;20354;-84
2023/05/03 12:52:17;;;;;;;3.00;0.70;;;24.50;41.80;;;;;;5056809;28;20032;-82
2023/05/03 12:54:45;;;;;;;1.70;0.50;;;24.70;41.50;;;;;;5059516;28;20025;-84
2023/05/03 12:57:11;;;;;;;7.95;1.02;;;24.80;41.30;;;;;;5058939;28;20021;-87